Main page
METAR-TAF:

METAR-TAF

Airports :

New Century AirCenter

Olathe, Kansas, United States

latitude: 38-49-28N, longitude: 094-53-13W, elevation: 1086 ft

Current weather observation

The report was made 33 minutes ago, at 23:53 UTC
Wind 9 mph from the North/Northeast
Temperature 79°F
Humidity 79%
Pressure 30.17 in. Hg
Visibility: 10 miles
Few clouds at a height of 7000 ft

METAR: KIXD 192353Z 03008KT 10SM FEW070 26/22 A3017 RMK AO2 SLP206 60007 T02560217 10261 20228 56003

Time: 19:26 (00:26 UTC)

Forecast

The report was made 1 hour and 6 minutes ago, at 23:20 UTC
Forecast valid from 20 at 00 UTC to 20 at 24 UTC
Wind 7 mph from variable directions
Visibility: 6 miles
Scattered clouds at a height of 2000 ft
Broken clouds at a height of 5000 ft
From 20 at 1300 UTC
Wind 8 mph from the South
Visibility: 6 miles
Overcast at a height of 3500 ft

TAF: KIXD 192320Z 2000/2024 VRB06KT P6SM SCT020 BKN050 FM201300 18007KT P6SM OVC035

Weather observations and forecasts of more than 4000 airports (METAR and TAF reports).

The available stations are represented by yellow and red dots on the map.

Hover mouse over dot to see the name of the station.

Then click to see weather observations and forecasts.

To change the map : click on the green buttons with a black cross to zoom in, on the green button with a dash to zoom out, or on the green arrows for adjacent maps.


METAR-TAF: